createdAt,value
2022-12-01T00:01:40.609Z,102220.06
2022-12-01T00:04:09.275Z,102217.31
2022-12-01T00:06:38.663Z,102210.16
2022-12-01T00:09:24.548Z,102211.50
2022-12-01T00:11:53.172Z,102212.72
2022-12-01T00:14:23.188Z,102213.16
2022-12-01T00:16:51.848Z,102206.69
2022-12-01T00:19:20.524Z,102201.25
2022-12-01T00:21:49.134Z,102213.94
2022-12-01T00:24:17.812Z,102206.53
2022-12-01T00:26:46.423Z,102201.16
2022-12-01T00:29:15.058Z,102207.69
2022-12-01T00:31:45.119Z,102205.06
2022-12-01T00:34:24.485Z,102197.16
2022-12-01T00:36:53.149Z,102200.88
2022-12-01T00:39:21.802Z,102201.63
2022-12-01T00:41:50.390Z,102210.84
2022-12-01T00:44:19.062Z,102212.44
2022-12-01T00:46:49.036Z,102206.81
2022-12-01T00:49:17.864Z,102199.22
2022-12-01T00:51:46.473Z,102203.50
2022-12-01T00:54:15.157Z,102206.97
2022-12-01T00:56:43.742Z,102210.59
2022-12-01T00:59:12.607Z,102196.19
2022-12-01T01:01:41.516Z,102212.19
2022-12-01T01:04:11.572Z,102210.47
2022-12-01T01:06:40.155Z,102212.25
2022-12-01T01:09:09.024Z,102202.28
2022-12-01T01:11:37.807Z,102209.66
2022-12-01T01:14:07.292Z,102225.22
2022-12-01T01:16:36.313Z,102221.81
2022-12-01T01:19:04.974Z,102221.94
2022-12-01T01:21:34.980Z,102227.16
2022-12-01T01:24:03.605Z,102217.38
2022-12-01T01:26:33.887Z,102221.81
2022-12-01T01:29:04.040Z,102223.69
2022-12-01T01:31:33.304Z,102231.16
2022-12-01T01:34:01.977Z,102229.00
2022-12-01T01:36:30.652Z,102238.38
2022-12-01T01:39:01.660Z,102238.84
2022-12-01T01:41:30.296Z,102231.09
2022-12-01T01:44:00.707Z,102237.63
2022-12-01T01:46:31.063Z,102236.41
2022-12-01T01:49:02.402Z,102239.63
2022-12-01T01:51:34.912Z,102244.72
2022-12-01T01:54:09.013Z,102239.03
2022-12-01T01:56:38.709Z,102240.50
2022-12-01T01:59:07.607Z,102247.19
2022-12-01T02:01:36.286Z,102246.31
2022-12-01T02:04:05.279Z,102239.88
2022-12-01T02:06:33.891Z,102244.94
2022-12-01T02:09:03.943Z,102241.22
2022-12-01T02:12:00.134Z,102244.13
2022-12-01T02:14:56.090Z,102241.00
2022-12-01T02:17:40.221Z,102239.31
2022-12-01T02:20:45.814Z,102236.59
2022-12-01T02:23:44.147Z,102237.28
2022-12-01T02:26:39.798Z,102235.19
2022-12-01T02:29:56.366Z,102238.75
2022-12-01T02:32:34.430Z,102234.56
2022-12-01T02:35:11.823Z,102240.03
2022-12-01T02:37:50.393Z,102238.31
2022-12-01T02:40:25.589Z,102232.09
2022-12-01T02:43:03.728Z,102229.88
2022-12-01T02:45:44.893Z,102224.25
2022-12-01T02:48:21.941Z,102233.13
2022-12-01T02:50:52.424Z,102233.34
2022-12-01T02:53:21.950Z,102233.81
2022-12-01T02:55:53.405Z,102224.53
2022-12-01T02:58:22.737Z,102225.38
2022-12-01T03:01:07.644Z,102228.28
2022-12-01T03:04:15.556Z,102229.72
2022-12-01T03:06:54.409Z,102228.94
2022-12-01T03:09:35.797Z,102229.38
2022-12-01T03:12:21.212Z,102230.81
2022-12-01T03:15:03.378Z,102227.81
2022-12-01T03:17:39.437Z,102224.53
2022-12-01T03:20:16.715Z,102223.66
2022-12-01T03:22:53.667Z,102235.13
2022-12-01T03:25:26.395Z,102228.19
2022-12-01T03:28:20.342Z,102224.97
2022-12-01T03:30:47.111Z,102224.47
2022-12-01T03:33:25.236Z,102238.06
2022-12-01T03:36:00.940Z,102234.25
2022-12-01T03:38:31.952Z,102237.00
2022-12-01T03:41:07.570Z,102235.56
2022-12-01T03:43:40.461Z,102241.53
2022-12-01T03:46:13.420Z,102244.91
2022-12-01T03:48:43.042Z,102244.22
2022-12-01T03:51:19.172Z,102247.78
2022-12-01T03:53:54.106Z,102250.78
2022-12-01T03:56:30.698Z,102249.56
2022-12-01T03:59:01.728Z,102256.56
2022-12-01T04:01:33.638Z,102248.00
2022-12-01T04:04:08.167Z,102253.13
2022-12-01T04:06:38.278Z,102244.19
2022-12-01T04:09:06.718Z,102249.97
2022-12-01T04:11:52.566Z,102254.22
2022-12-01T04:14:21.023Z,102250.97
2022-12-01T04:16:49.717Z,102247.47
2022-12-01T04:19:18.432Z,102251.28
2022-12-01T04:21:48.259Z,102237.91
2022-12-01T04:24:16.842Z,102242.72
2022-12-01T04:26:46.190Z,102245.44
2022-12-01T04:29:15.450Z,102247.81
2022-12-01T04:31:43.887Z,102250.94
2022-12-01T04:34:12.284Z,102246.06
2022-12-01T04:36:40.684Z,102253.78
2022-12-01T04:39:10.382Z,102237.25
2022-12-01T04:41:38.723Z,102245.63
2022-12-01T04:44:07.170Z,102244.16
2022-12-01T04:46:35.588Z,102243.69
2022-12-01T04:49:04.546Z,102239.88
2022-12-01T04:51:33.297Z,102234.53
2022-12-01T04:54:03.857Z,102239.41
2022-12-01T04:56:33.951Z,102237.72
2022-12-01T04:59:02.333Z,102241.28
2022-12-01T05:01:30.830Z,102238.44
2022-12-01T05:03:59.288Z,102234.81
2022-12-01T05:06:29.729Z,102232.34
2022-12-01T05:09:01.577Z,102231.88
2022-12-01T05:11:33.107Z,102232.84
2022-12-01T05:14:02.055Z,102231.63
2022-12-01T05:16:32.901Z,102237.59
2022-12-01T05:19:22.000Z,102230.16
2022-12-01T05:21:51.489Z,102227.72
2022-12-01T05:24:21.450Z,102234.50
2022-12-01T05:26:51.228Z,102233.63
2022-12-01T05:29:19.775Z,102234.72
2022-12-01T05:31:48.589Z,102239.66
2022-12-01T05:34:17.477Z,102235.13
2022-12-01T05:36:46.098Z,102230.34
2022-12-01T05:39:14.437Z,102235.84
2022-12-01T05:41:42.812Z,102237.28
2022-12-01T05:44:12.496Z,102239.34
2022-12-01T05:46:40.921Z,102238.13
2022-12-01T05:49:09.302Z,102236.34
2022-12-01T05:51:37.679Z,102248.69
2022-12-01T05:54:06.499Z,102245.56
2022-12-01T05:56:35.097Z,102250.22
2022-12-01T05:59:03.450Z,102251.44
2022-12-01T06:01:33.362Z,102252.94
2022-12-01T06:04:02.137Z,102253.16
2022-12-01T06:06:30.840Z,102254.38
2022-12-01T06:08:59.167Z,102262.94
2022-12-01T06:11:27.555Z,102259.06
2022-12-01T06:13:55.900Z,102265.78
2022-12-01T06:16:24.374Z,102258.72
2022-12-01T06:18:54.171Z,102268.06
2022-12-01T06:21:22.582Z,102262.88
2022-12-01T06:23:51.151Z,102259.13
2022-12-01T06:26:19.496Z,102265.59
2022-12-01T06:28:48.023Z,102272.22
2022-12-01T06:31:16.470Z,102265.28
2022-12-01T06:33:44.966Z,102270.16
2022-12-01T06:36:14.747Z,102264.59
2022-12-01T06:38:43.095Z,102267.78
2022-12-01T06:41:11.451Z,102277.06
2022-12-01T06:43:39.916Z,102272.44
2022-12-01T06:46:08.533Z,102270.63
2022-12-01T06:48:37.029Z,102274.25
2022-12-01T06:51:05.787Z,102280.34
2022-12-01T06:53:35.561Z,102271.91
2022-12-01T06:56:06.008Z,102281.56
2022-12-01T06:58:35.206Z,102277.66
2022-12-01T07:01:10.682Z,102288.84
2022-12-01T07:03:39.748Z,102286.16
2022-12-01T07:06:08.246Z,102273.69
2022-12-01T07:08:37.961Z,102282.72
2022-12-01T07:11:08.905Z,102287.59
2022-12-01T07:13:37.695Z,102281.88
2022-12-01T07:16:07.347Z,102279.28
2022-12-01T07:18:37.216Z,102287.38
2022-12-01T07:21:09.080Z,102293.09
2022-12-01T07:23:38.872Z,102287.41
2022-12-01T07:26:11.127Z,102292.41
2022-12-01T07:28:39.612Z,102296.88
2022-12-01T07:31:10.157Z,102303.31
2022-12-01T07:33:39.115Z,102302.38
2022-12-01T07:36:09.139Z,102291.91
2022-12-01T07:38:40.115Z,102301.47
2022-12-01T07:41:10.865Z,102304.09
2022-12-01T07:43:39.662Z,102305.34
2022-12-01T07:46:10.058Z,102300.50
2022-12-01T07:48:39.917Z,102299.69
2022-12-01T07:51:10.538Z,102303.88
2022-12-01T07:53:40.763Z,102296.19
2022-12-01T07:56:09.837Z,102292.69
2022-12-01T07:58:38.881Z,102297.31
2022-12-01T08:01:10.204Z,102305.75
2022-12-01T08:03:39.335Z,102302.22
2022-12-01T08:06:08.659Z,102300.91
2022-12-01T08:08:40.039Z,102308.16
2022-12-01T08:11:12.149Z,102307.59
2022-12-01T08:13:40.868Z,102315.88
2022-12-01T08:16:12.090Z,102312.75
2022-12-01T08:18:42.223Z,102317.28
2022-12-01T08:21:14.132Z,102317.72
2022-12-01T08:23:44.758Z,102318.25
2022-12-01T08:26:16.232Z,102312.78
2022-12-01T08:28:45.162Z,102319.19
2022-12-01T08:31:16.189Z,102320.31
2022-12-01T08:33:44.657Z,102316.81
2022-12-01T08:36:13.101Z,102322.41
2022-12-01T08:38:43.638Z,102327.78
2022-12-01T08:41:14.510Z,102320.25
2022-12-01T08:44:01.137Z,102330.50
2022-12-01T08:46:32.806Z,102333.19
2022-12-01T08:49:01.502Z,102335.28
2022-12-01T08:51:30.444Z,102335.56
2022-12-01T08:54:00.344Z,102330.91
2022-12-01T08:56:34.949Z,102332.38
2022-12-01T08:59:04.252Z,102335.38
2022-12-01T09:01:33.846Z,102335.44
2022-12-01T09:04:08.839Z,102334.81
2022-12-01T09:06:41.720Z,102337.94
2022-12-01T09:09:11.991Z,102337.00
2022-12-01T09:11:43.698Z,102339.50
2022-12-01T09:14:12.512Z,102336.31
2022-12-01T09:16:42.060Z,102340.00
2022-12-01T09:19:13.266Z,102341.31
2022-12-01T09:21:43.496Z,102343.16
2022-12-01T09:24:13.735Z,102330.53
2022-12-01T09:26:43.795Z,102343.38
2022-12-01T09:29:15.498Z,102344.09
2022-12-01T09:31:44.535Z,102350.47
2022-12-01T09:34:16.974Z,102348.03
2022-12-01T09:36:46.408Z,102351.91
2022-12-01T09:39:17.462Z,102353.47
2022-12-01T09:41:51.894Z,102352.50
2022-12-01T09:44:37.839Z,102360.88
2022-12-01T09:47:19.192Z,102343.03
2022-12-01T09:49:57.466Z,102349.06
2022-12-01T09:52:30.320Z,102344.09
2022-12-01T09:55:01.566Z,102348.84
2022-12-01T09:57:40.375Z,102342.34
2022-12-01T10:00:16.318Z,102346.22
2022-12-01T10:02:52.147Z,102346.41
2022-12-01T10:05:23.627Z,102342.19
2022-12-01T10:07:57.492Z,102337.06
2022-12-01T10:10:31.226Z,102341.72
2022-12-01T10:13:01.595Z,102335.69
2022-12-01T10:15:44.528Z,102336.28
2022-12-01T10:18:33.707Z,102333.13
2022-12-01T10:21:13.037Z,102326.53
2022-12-01T10:24:08.818Z,102325.69
2022-12-01T10:26:51.344Z,102312.34
2022-12-01T10:29:33.785Z,102318.63
2022-12-01T10:32:10.739Z,102322.06
2022-12-01T10:34:43.188Z,102309.31
2022-12-01T10:37:19.181Z,102319.88
2022-12-01T10:39:52.150Z,102325.69
2022-12-01T10:42:30.167Z,102317.78
2022-12-01T10:45:03.430Z,102320.16
2022-12-01T10:47:32.127Z,102320.22
2022-12-01T10:50:00.655Z,102322.72
2022-12-01T10:52:37.448Z,102321.13
2022-12-01T10:55:27.750Z,102319.66
2022-12-01T10:57:59.011Z,102317.97
2022-12-01T11:03:28.556Z,102312.44
2022-12-01T11:06:00.042Z,102317.09
2022-12-01T11:08:38.576Z,102310.28
2022-12-01T11:11:07.732Z,102313.03
2022-12-01T11:13:37.986Z,102315.31
2022-12-01T11:16:29.452Z,102310.88
2022-12-01T11:19:25.391Z,102317.97
2022-12-01T11:21:58.111Z,102311.44
2022-12-01T11:24:43.159Z,102314.69
2022-12-01T11:27:21.245Z,102310.47
2022-12-01T11:29:52.833Z,102311.22
2022-12-01T11:32:27.260Z,102306.38
2022-12-01T11:34:59.929Z,102304.19
2022-12-01T11:37:34.427Z,102308.81
2022-12-01T11:40:24.738Z,102311.69
2022-12-01T11:42:57.949Z,102302.94
2022-12-01T11:45:32.371Z,102304.47
2022-12-01T11:48:07.261Z,102305.69
2022-12-01T11:50:38.384Z,102306.00
2022-12-01T11:53:28.930Z,102301.75
2022-12-01T11:56:20.946Z,102304.47
2022-12-01T12:07:07.713Z,102294.66
2022-12-01T12:09:57.035Z,102295.91
2022-12-01T12:12:41.692Z,102285.75
2022-12-01T12:15:24.486Z,102290.06
2022-12-01T12:18:15.340Z,102285.28
2022-12-01T12:20:59.066Z,102289.94
2022-12-01T12:23:54.109Z,102285.66
2022-12-01T12:26:26.623Z,102283.03
2022-12-01T12:29:13.976Z,102277.94
2022-12-01T12:31:58.637Z,102277.56
2022-12-01T12:34:41.821Z,102274.44
2022-12-01T12:37:26.124Z,102271.88
2022-12-01T12:40:18.938Z,102261.22
2022-12-01T12:43:03.887Z,102263.41
2022-12-01T12:45:43.679Z,102267.38
2022-12-01T12:48:28.812Z,102265.50
2022-12-01T12:51:08.410Z,102266.81
2022-12-01T12:53:45.443Z,102261.69
2022-12-01T12:56:19.795Z,102263.09
2022-12-01T12:58:58.550Z,102263.41
2022-12-01T13:01:33.161Z,102253.13
2022-12-01T13:04:08.658Z,102248.25
2022-12-01T13:06:42.954Z,102248.31
2022-12-01T13:09:19.062Z,102255.41
2022-12-01T13:11:56.664Z,102249.72
2022-12-01T13:14:32.304Z,102253.53
2022-12-01T13:17:10.248Z,102249.31
2022-12-01T13:19:42.035Z,102250.00
2022-12-01T13:22:13.545Z,102251.41
2022-12-01T13:24:42.899Z,102254.09
2022-12-01T13:27:20.516Z,102241.50
2022-12-01T13:29:51.967Z,102248.47
2022-12-01T13:32:34.069Z,102231.53
2022-12-01T13:35:06.445Z,102235.59
2022-12-01T13:37:37.453Z,102232.25
2022-12-01T13:40:11.765Z,102226.63
2022-12-01T13:42:42.599Z,102227.81
2022-12-01T13:45:18.557Z,102226.75
2022-12-01T13:47:54.519Z,102223.59
2022-12-01T13:51:03.903Z,102233.38
2022-12-01T13:53:36.709Z,102234.50
2022-12-01T13:56:28.450Z,102232.66
2022-12-01T13:58:58.462Z,102236.81
2022-12-01T14:01:51.033Z,102241.59
2022-12-01T14:04:33.693Z,102232.53
2022-12-01T14:07:39.680Z,102234.84
2022-12-01T14:10:31.191Z,102232.88
2022-12-01T14:13:04.119Z,102232.22
2022-12-01T14:15:42.714Z,102227.69
2022-12-01T14:18:37.022Z,102224.41
2022-12-01T14:21:08.834Z,102235.16
2022-12-01T14:23:41.319Z,102226.28
2022-12-01T14:26:17.968Z,102228.97
2022-12-01T14:29:31.414Z,102227.28
2022-12-01T14:32:25.034Z,102240.41
2022-12-01T14:35:04.988Z,102244.88
2022-12-01T14:37:48.236Z,102229.66
2022-12-01T14:40:26.092Z,102239.66
2022-12-01T14:43:16.241Z,102234.34
2022-12-01T14:45:55.300Z,102231.50
2022-12-01T14:48:32.677Z,102240.69
2022-12-01T14:51:17.862Z,102242.66
2022-12-01T14:53:49.894Z,102247.66
2022-12-01T14:56:21.050Z,102237.16
2022-12-01T14:58:55.263Z,102239.56
2022-12-01T15:01:24.690Z,102239.25
2022-12-01T15:03:58.980Z,102245.09
2022-12-01T15:06:29.757Z,102243.91
2022-12-01T15:11:59.275Z,102230.47
2022-12-01T15:14:36.148Z,102231.41
2022-12-01T15:17:06.199Z,102226.53
2022-12-01T15:19:41.418Z,102224.13
2022-12-01T15:22:15.676Z,102223.97
2022-12-01T15:24:44.967Z,102230.63
2022-12-01T15:27:28.224Z,102234.34
2022-12-01T15:29:58.484Z,102237.47
2022-12-01T15:32:28.070Z,102231.13
2022-12-01T15:35:01.841Z,102235.50
2022-12-01T15:37:33.736Z,102237.50
2022-12-01T15:40:59.873Z,102241.59
2022-12-01T15:43:06.567Z,102235.06
2022-12-01T15:45:56.839Z,102246.88
2022-12-01T15:48:31.200Z,102252.53
2022-12-01T15:51:13.007Z,102250.84
2022-12-01T15:53:47.688Z,102247.41
2022-12-01T15:56:16.311Z,102255.09
2022-12-01T15:58:47.793Z,102265.66
2022-12-01T16:01:19.177Z,102262.81
2022-12-01T16:03:55.474Z,102262.63
2022-12-01T16:06:29.762Z,102253.06
2022-12-01T16:09:01.199Z,102249.16
2022-12-01T16:11:29.894Z,102248.66
2022-12-01T16:14:04.832Z,102242.72
2022-12-01T16:16:43.358Z,102245.13
2022-12-01T16:19:30.830Z,102239.44
2022-12-01T16:22:13.242Z,102241.22
2022-12-01T16:24:48.813Z,102240.00
2022-12-01T16:27:23.508Z,102241.03
2022-12-01T16:29:54.589Z,102236.69
2022-12-01T16:32:28.529Z,102231.50
2022-12-01T16:34:56.880Z,102224.00
2022-12-01T16:37:27.681Z,102232.56
2022-12-01T16:39:56.001Z,102231.25
2022-12-01T16:42:24.641Z,102240.06
2022-12-01T16:44:53.626Z,102236.56
2022-12-01T16:47:25.146Z,102230.38
2022-12-01T16:49:54.169Z,102237.28
2022-12-01T16:52:43.758Z,102238.56
2022-12-01T16:55:31.171Z,102245.53
2022-12-01T16:57:59.540Z,102243.31
2022-12-01T17:00:29.421Z,102244.06
2022-12-01T17:02:58.918Z,102243.25
2022-12-01T17:05:27.364Z,102238.78
2022-12-01T17:07:55.857Z,102238.69
2022-12-01T17:10:25.708Z,102247.28
2022-12-01T17:12:54.054Z,102242.78
2022-12-01T17:15:22.475Z,102242.72
2022-12-01T17:17:51.367Z,102244.69
2022-12-01T17:20:19.980Z,102252.78
2022-12-01T17:22:48.462Z,102253.78
2022-12-01T17:25:16.910Z,102259.75
2022-12-01T17:27:46.617Z,102263.81
2022-12-01T17:30:15.438Z,102270.34
2022-12-01T17:32:43.787Z,102264.56
2022-12-01T17:35:12.387Z,102263.94
2022-12-01T17:37:40.842Z,102271.31
2022-12-01T17:40:13.869Z,102273.59
2022-12-01T17:42:48.531Z,102271.13
2022-12-01T17:45:20.547Z,102271.41
2022-12-01T17:47:49.171Z,102274.97
2022-12-01T17:50:18.085Z,102265.50
2022-12-01T17:52:46.722Z,102273.41
2022-12-01T17:55:15.397Z,102269.88
2022-12-01T17:57:44.083Z,102269.75
2022-12-01T18:00:16.035Z,102272.44
2022-12-01T18:02:47.665Z,102267.53
2022-12-01T18:05:16.395Z,102271.88
2022-12-01T18:07:44.757Z,102272.59
2022-12-01T18:10:13.293Z,102276.09
2022-12-01T18:12:41.675Z,102271.28
2022-12-01T18:15:12.475Z,102275.88
2022-12-01T18:17:40.867Z,102272.41
2022-12-01T18:20:12.157Z,102275.25
2022-12-01T18:22:40.759Z,102272.25
2022-12-01T18:25:09.955Z,102274.94
2022-12-01T18:27:38.323Z,102266.53
2022-12-01T18:30:08.718Z,102275.06
2022-12-01T18:32:37.137Z,102275.50
2022-12-01T18:35:06.415Z,102272.34
2022-12-01T18:37:37.231Z,102274.00
2022-12-01T18:40:06.853Z,102271.03
2022-12-01T18:42:35.562Z,102266.28
2022-12-01T18:45:04.638Z,102268.81
2022-12-01T18:47:33.267Z,102268.63
2022-12-01T18:50:01.890Z,102270.25
2022-12-01T18:52:30.469Z,102272.25
2022-12-01T18:55:00.470Z,102254.69
2022-12-01T18:57:29.179Z,102262.63
2022-12-01T18:59:57.820Z,102263.69
2022-12-01T19:02:26.434Z,102259.50
2022-12-01T19:04:55.182Z,102264.47
2022-12-01T19:07:28.191Z,102253.63
2022-12-01T19:09:59.957Z,102256.41
2022-12-01T19:12:28.701Z,102256.63
2022-12-01T19:14:57.320Z,102266.16
2022-12-01T19:17:25.931Z,102259.13
2022-12-01T19:19:54.571Z,102254.59
2022-12-01T19:22:23.172Z,102254.75
2022-12-01T19:24:52.572Z,102246.78
2022-12-01T19:27:22.712Z,102247.47
2022-12-01T19:29:52.304Z,102249.28
2022-12-01T19:32:21.394Z,102248.81
2022-12-01T19:34:50.353Z,102255.56
2022-12-01T19:37:20.005Z,102249.81
2022-12-01T19:39:48.612Z,102253.56
2022-12-01T19:42:17.239Z,102256.22
2022-12-01T19:44:47.410Z,102254.25
2022-12-01T19:47:20.663Z,102250.13
2022-12-01T19:49:50.935Z,102257.03
2022-12-01T19:52:19.542Z,102252.78
2022-12-01T19:54:48.485Z,102257.38
2022-12-01T19:57:17.433Z,102251.03
2022-12-01T19:59:47.534Z,102248.31
2022-12-01T20:02:16.230Z,102250.88
2022-12-01T20:04:44.858Z,102251.06
2022-12-01T20:07:13.462Z,102252.50
2022-12-01T20:09:49.637Z,102256.84
2022-12-01T20:12:18.667Z,102256.75
2022-12-01T20:14:49.081Z,102259.03
2022-12-01T20:17:18.000Z,102258.22
2022-12-01T20:19:46.612Z,102256.75
2022-12-01T20:22:15.238Z,102264.41
2022-12-01T20:24:43.880Z,102262.53
2022-12-01T20:27:12.559Z,102261.50
2022-12-01T20:29:41.184Z,102260.38
2022-12-01T20:32:11.271Z,102260.34
2022-12-01T20:34:40.032Z,102269.31
2022-12-01T20:37:08.667Z,102263.69
2022-12-01T20:39:38.279Z,102253.94
2022-12-01T20:42:07.004Z,102262.53
2022-12-01T20:44:36.267Z,102257.94
2022-12-01T20:47:05.575Z,102267.50
2022-12-01T20:49:35.554Z,102256.22
2022-12-01T20:52:04.284Z,102262.66
2022-12-01T20:54:32.618Z,102248.66
2022-12-01T20:57:01.089Z,102255.84
2022-12-01T20:59:30.391Z,102267.84
2022-12-01T21:01:58.854Z,102259.16
2022-12-01T21:04:27.299Z,102251.38
2022-12-01T21:06:58.480Z,102256.72
2022-12-01T21:09:27.419Z,102247.59
2022-12-01T21:12:15.936Z,102257.69
2022-12-01T21:14:49.452Z,102253.47
2022-12-01T21:17:33.094Z,102244.06
2022-12-01T21:20:11.733Z,102248.03
2022-12-01T21:22:41.811Z,102249.25
2022-12-01T21:25:15.496Z,102255.78
2022-12-01T21:27:44.194Z,102265.06
2022-12-01T21:30:19.516Z,102250.75
2022-12-01T21:32:49.195Z,102253.03
2022-12-01T21:35:20.676Z,102246.72
2022-12-01T21:37:51.882Z,102242.19
2022-12-01T21:40:23.831Z,102241.88
2022-12-01T21:42:53.041Z,102242.13
2022-12-01T21:45:29.412Z,102237.88
2022-12-01T21:48:07.431Z,102233.03
2022-12-01T21:50:35.790Z,102235.28
2022-12-01T21:53:13.700Z,102227.25
2022-12-01T21:55:44.497Z,102225.94
2022-12-01T21:58:29.070Z,102226.38
2022-12-01T22:00:59.385Z,102226.28
2022-12-01T22:03:34.697Z,102223.56
2022-12-01T22:06:29.722Z,102220.59
2022-12-01T22:09:03.708Z,102210.84
2022-12-01T22:11:32.850Z,102217.03
2022-12-01T22:14:13.955Z,102208.88
2022-12-01T22:16:45.077Z,102203.75
2022-12-01T22:19:30.186Z,102201.00
2022-12-01T22:22:15.668Z,102207.16
2022-12-01T22:24:48.279Z,102203.56
2022-12-01T22:27:30.285Z,102205.59
2022-12-01T22:30:01.394Z,102204.75
2022-12-01T22:32:55.272Z,102203.34
2022-12-01T22:35:34.717Z,102204.88
2022-12-01T22:38:33.268Z,102204.44
2022-12-01T22:41:07.526Z,102200.91
2022-12-01T22:43:45.641Z,102199.00
2022-12-01T22:46:33.256Z,102205.06
2022-12-01T22:49:13.703Z,102202.91
2022-12-01T22:51:47.675Z,102203.03
2022-12-01T22:54:35.754Z,102198.41
2022-12-01T22:57:17.701Z,102195.56
2022-12-01T22:59:47.877Z,102196.78
2022-12-01T23:02:22.969Z,102188.75
2022-12-01T23:04:56.437Z,102189.47
2022-12-01T23:07:30.438Z,102196.25
2022-12-01T23:10:05.011Z,102190.63
2022-12-01T23:12:36.923Z,102188.16
2022-12-01T23:15:31.559Z,102177.47
2022-12-01T23:18:10.424Z,102184.91
2022-12-01T23:20:39.089Z,102185.03
2022-12-01T23:23:14.870Z,102181.28
2022-12-01T23:25:44.312Z,102191.69
2022-12-01T23:28:15.459Z,102188.00
2022-12-01T23:30:46.481Z,102183.03
2022-12-01T23:33:20.787Z,102186.34
2022-12-01T23:35:54.878Z,102181.56
2022-12-01T23:38:26.693Z,102186.75
2022-12-01T23:40:58.163Z,102183.84
2022-12-01T23:43:30.899Z,102181.09
2022-12-01T23:46:05.054Z,102174.28
2022-12-01T23:48:38.453Z,102169.81
2022-12-01T23:51:16.438Z,102164.56
2022-12-01T23:53:45.505Z,102163.59
2022-12-01T23:56:18.004Z,102166.25
2022-12-01T23:58:48.287Z,102165.66
